Latest Weather Observations for Nerriga

IDN60801

Issued at 7:32 pm EST Saturday 4 July 2015 (issued every 30 minutes, with the page automatically refreshed every 10 minutes)

About weather observations | Map of weather stations | Latest weather observations for NSW | Other Formats
Station Details ID: 069128 Name: NERRIGA AWS Lat: -35.11 Lon: 150.08 Height: 622.0 m
Data from the previous 72 hours. | See also: Recent months at Nerriga
Date/Time
EST
Temp
°C
App
Temp
°C
Dew
Point
Rel
Hum
%
Delta-T
°C
Wind Press
QNH
hPa
Press
MSL
hPa
Rain
since 9 am
mm
Dir
 
Spd
km/h
Gust
km/h
Spd
kts
Gust
kts
04/07:30pm 3.3 0.1 0.5 82 1.1 WNW 7 9 4 5 1021.9 1023.1 0.0
04/07:00pm 3.0 -0.1 -0.1 80 1.2 WNW 6 7 3 4 1021.7 1022.9 0.0
04/06:30pm 3.9 2.0 0.4 78 1.4 CALM 0 0 0 0 1021.7 1022.9 0.0
04/06:00pm 4.9 1.7 0.5 73 1.8 WNW 7 11 4 6 1021.4 1022.5 0.0
04/05:30pm 5.4 2.1 0.4 70 2.0 WNW 7 9 4 5 1021.0 1022.1 0.0
04/05:00pm 6.4 3.2 0.5 66 2.4 WNW 7 11 4 6 1020.7 1021.8 0.0
04/04:30pm 8.1 4.1 0.6 59 3.1 NW 11 17 6 9 1020.5 1021.6 0.0
04/04:00pm 9.1 4.7 0.6 55 3.6 WNW 13 17 7 9 1020.5 1021.6 0.0
04/03:30pm 9.5 4.7 0.1 52 3.9 W 15 20 8 11 1020.4 1021.5 0.0
04/03:00pm 10.0 4.9 0.6 52 4.0 W 17 22 9 12 1020.1 1021.3 0.0
04/02:30pm 9.7 4.2 0.3 52 3.9 W 19 26 10 14 1019.9 1021.0 0.0
04/02:00pm 10.0 5.2 0.3 51 4.1 W 15 24 8 13 1019.8 1020.9 0.0
04/01:30pm 9.2 3.7 0.4 54 3.7 W 19 26 10 14 1020.1 1021.3 0.0
04/01:00pm 8.7 3.9 0.2 55 3.5 WNW 15 22 8 12 1020.1 1021.3 0.0
04/12:30pm 8.2 4.8 1.8 64 2.7 WSW 9 15 5 8 1020.7 1021.8 0.0
04/12:00pm 6.7 3.8 1.6 70 2.1 WSW 6 9 3 5 1020.9 1022.0 0.0
04/11:30am 5.2 2.0 0.6 72 1.9 WSW 7 11 4 6 1021.5 1022.7 0.0
04/11:00am 4.6 1.6 0.9 77 1.5 WSW 6 9 3 5 1021.8 1023.0 0.0
04/10:30am 3.0 -0.1 -0.1 80 1.2 WNW 6 9 3 5 1021.7 1022.9 0.0
04/10:00am 2.5 0.2 0.2 85 0.9 N 2 6 1 3 1021.8 1023.0 0.0
04/09:30am 1.9 -0.8 0.0 87 0.7 N 4 4 2 2 1021.8 1023.0 0.0
04/08:30am 0.4 -2.8 -0.7 92 0.4 N 6 7 3 4 1021.7 1022.9 0.0
04/08:00am -0.7 -4.2 -1.4 95 0.2 N 7 11 4 6 1021.6 1022.8 0.0
04/07:30am -0.8 -4.1 -1.6 94 0.2 N 6 7 3 4 1021.3 1022.4 0.0
04/07:00am -0.7 -4.0 -1.4 95 0.2 N 6 7 3 4 1021.4 1022.5 0.0
04/06:30am -0.9 -4.3 -2.0 92 0.3 N 6 9 3 5 1021.1 1022.2 0.0
04/06:00am -0.7 -4.0 -1.3 96 0.2 N 6 9 3 5 1021.1 1022.2 0.0
04/05:30am -1.4 -4.8 -2.0 96 0.1 N 6 7 3 4 1021.0 1022.1 0.0
04/05:00am -1.0 -4.3 -1.4 97 0.1 N 6 9 3 5 1020.9 1022.0 0.0
04/04:30am -1.3 -4.7 -1.7 97 0.1 N 6 9 3 5 1021.0 1022.1 0.0
04/04:00am -1.6 -5.2 -2.0 97 0.1 N 7 9 4 5 1021.1 1022.2 0.0
04/03:30am -2.1 -5.7 -2.4 98 0.0 WNW 7 11 4 6 1021.4 1022.5 0.0
04/03:00am -2.0 -5.4 -2.4 97 0.0 WNW 6 9 3 5 1021.8 1023.0 0.0
04/02:30am -2.0 -5.1 -2.3 98 0.0 WNW 4 7 2 4 1022.1 1023.2 0.0
04/02:00am -2.0 -5.4 -2.3 98 0.0 WNW 6 9 3 5 1022.5 1023.6 0.0
04/01:30am -2.7 -5.1 -3.4 95 0.1 CALM 0 2 0 1 1022.6 1023.7 0.0
04/01:00am -3.1 -6.0 -3.8 95 0.1 WNW 2 2 1 1 1022.4 1023.5 0.0
04/12:30am -2.7 -5.1 -3.4 95 0.1 CALM 0 0 0 0 1023.1 1024.3 0.0
04/12:00am -2.8 -5.3 -3.6 94 0.1 CALM 0 2 0 1 1023.5 1024.7 0.0
 
Date/Time
EST
Temp
°C
App
Temp
°C
Dew
Point
Rel
Hum
%
Delta-T
°C
Wind Press
QNH
hPa
Press
MSL
hPa
Rain
since 9 am
mm
Dir
 
Spd
km/h
Gust
km/h
Spd
kts
Gust
kts
03/11:30pm -2.0 -5.1 -2.8 94 0.2 WNW 4 4 2 2 1023.9 1025.0 0.0
03/11:00pm -2.1 -5.3 -3.1 93 0.2 WNW 4 4 2 2 1023.9 1025.0 0.0
03/10:30pm -1.4 -3.7 -2.4 93 0.3 CALM 0 4 0 2 1024.2 1025.4 0.0
03/10:00pm -1.4 -3.7 -2.5 92 0.3 CALM 0 0 0 0 1024.2 1025.4 0.0
03/09:30pm -1.2 -3.5 -2.6 90 0.4 CALM 0 0 0 0 1024.5 1025.7 0.0
03/09:00pm -0.7 -3.0 -2.4 88 0.6 CALM 0 2 0 1 1024.4 1025.6 0.0
03/08:30pm -0.9 -4.0 -2.6 88 0.6 WNW 4 6 2 3 1024.5 1025.7 0.0
03/08:00pm -0.5 -3.2 -2.5 86 0.7 WNW 2 4 1 2 1024.5 1025.7 0.0
03/07:30pm 1.7 -0.9 -1.5 79 1.2 WNW 2 4 1 2 1024.5 1025.7 0.0
03/07:00pm 2.4 -1.2 -1.9 73 1.6 WNW 7 11 4 6 1024.4 1025.6 0.0
03/06:30pm 3.6 -0.7 -1.5 69 1.9 WNW 11 15 6 8 1024.4 1025.6 0.0
03/06:00pm 2.6 -0.6 -0.8 78 1.3 NNW 6 7 3 4 1024.3 1025.5 0.0
03/05:30pm 3.8 1.4 -0.6 73 1.7 NNW 2 6 1 3 1024.1 1025.2 0.0
03/05:00pm 6.0 2.7 -0.9 61 2.7 NNW 6 7 3 4 1023.9 1025.0 0.0
03/04:30pm 7.7 4.3 -0.8 55 3.4 NNW 7 11 4 6 1023.9 1025.0 0.0
03/04:00pm 8.6 4.8 -0.9 51 3.8 NNW 9 11 5 6 1024.0 1025.1 0.0
03/03:30pm 9.0 4.8 -1.1 49 4.1 NNW 11 15 6 8 1024.0 1025.1 0.0
03/03:00pm 9.3 5.8 -1.1 48 4.2 W 7 13 4 7 1023.9 1025.0 0.0
03/02:30pm 9.0 5.0 -2.0 46 4.3 W 9 13 5 7 1023.8 1024.9 0.0
03/02:00pm 8.8 5.9 -1.0 50 3.9 W 4 11 2 6 1023.9 1025.0 0.0
03/01:30pm 8.4 5.1 -0.9 52 3.7 W 6 9 3 5 1024.4 1025.6 0.0
03/01:00pm 8.8 5.2 0.8 57 3.3 NNW 9 13 5 7 1024.8 1026.0 0.0
03/12:30pm 7.9 4.5 -0.6 55 3.4 SW 7 11 4 6 1025.5 1026.6 0.0
03/12:00pm 7.3 4.4 -0.9 56 3.2 SW 4 9 2 5 1025.7 1026.9 0.0
03/11:30am 5.9 3.1 -0.6 63 2.6 SW 4 7 2 4 1026.1 1027.3 0.0
03/11:00am 4.9 1.6 -1.1 65 2.3 SW 6 7 3 4 1026.5 1027.7 0.0
03/10:30am 4.2 1.3 -0.8 70 1.9 SW 4 7 2 4 1026.8 1028.0 0.0
03/10:00am 2.2 -1.2 -1.8 75 1.5 SW 6 9 3 5 1026.9 1028.2 0.0
03/09:30am 1.4 -1.2 -1.5 81 1.1 SW 2 4 1 2 1026.9 1028.2 0.0
03/09:00am 0.1 -2.1 -1.8 87 0.7 CALM 0 0 0 0 1026.5 1027.7 0.2
03/08:30am -1.4 -4.1 -2.4 93 0.3 SW 2 4 1 2 1026.3 1027.5 0.2
03/08:00am -2.2 -4.9 -2.6 97 0.0 SW 2 4 1 2 1026.2 1027.4 0.2
03/07:30am -5.3 -9.2 -6.1 94 0.0 SW 6 7 3 4 1025.8 1027.0 0.2
03/07:00am -5.2 -7.9 -6.0 94 0.0 CALM 0 0 0 0 1025.5 1026.6 0.2
03/06:30am -4.9 -7.9 -5.6 95 0.0 SW 2 2 1 1 1025.2 1026.4 0.2
03/06:00am -5.2 -8.3 -6.2 93 0.1 SW 2 4 1 2 1024.7 1025.9 0.2
03/05:30am -3.9 -7.2 -4.4 96 0.0 SW 4 6 2 3 1024.4 1025.6 0.2
03/05:00am -4.8 -7.5 -5.8 93 0.1 CALM 0 0 0 0 1024.3 1025.5 0.2
03/04:30am -4.2 -6.8 -5.0 94 0.1 CALM 0 2 0 1 1024.2 1025.4 0.2
03/04:00am -4.4 -7.8 -5.4 93 0.1 SW 4 7 2 4 1024.1 1025.2 0.2
03/03:30am -3.6 -7.5 -4.3 95 0.1 SW 7 9 4 5 1023.8 1024.9 0.2
03/03:00am -3.9 -7.2 -4.7 94 0.1 SW 4 6 2 3 1024.0 1025.1 0.2
03/02:30am -3.0 -6.6 -4.0 93 0.2 SW 6 7 3 4 1023.9 1025.0 0.2
03/02:00am -4.1 -7.2 -5.9 87 0.4 SW 2 2 1 1 1023.8 1024.9 0.2
03/01:30am -3.1 -6.0 -4.6 89 0.4 SW 2 4 1 2 1024.0 1025.1 0.2
03/01:00am -2.1 -5.4 -4.3 85 0.6 SW 4 7 2 4 1024.1 1025.2 0.2
03/12:30am -1.6 -5.1 -3.2 89 0.5 SW 6 7 3 4 1023.9 1025.0 0.2
03/12:00am -2.3 -6.0 -4.2 87 0.5 SW 6 7 3 4 1024.3 1025.5 0.2
 
Date/Time
EST
Temp
°C
App
Temp
°C
Dew
Point
Rel
Hum
%
Delta-T
°C
Wind Press
QNH
hPa
Press
MSL
hPa
Rain
since 9 am
mm
Dir
 
Spd
km/h
Gust
km/h
Spd
kts
Gust
kts
02/11:30pm -1.8 -5.5 -4.1 84 0.7 SW 6 7 3 4 1024.5 1025.7 0.2
02/11:00pm -1.3 -5.1 -3.8 83 0.8 SW 7 9 4 5 1024.6 1025.8 0.2
02/10:30pm 0.0 -3.5 -3.0 80 1.0 SW 6 6 3 3 1024.4 1025.6 0.2
02/10:00pm 0.6 -2.9 -2.6 79 1.2 SW 6 7 3 4 1023.9 1025.0 0.2
02/09:30pm 0.1 -2.6 -2.8 81 1.0 SW 2 6 1 3 1023.5 1024.7 0.2
02/09:00pm 1.1 -1.9 -2.0 80 1.2 SW 4 7 2 4 1023.3 1024.5 0.2
02/08:30pm 2.0 -0.6 -2.0 75 1.5 SW 2 6 1 3 1023.0 1024.2 0.2
02/08:00pm 2.3 -0.4 -2.4 71 1.7 SW 2 4 1 2 1022.5 1023.6 0.2
02/07:30pm 3.1 -0.9 -2.2 68 1.9 SW 9 15 5 8 1022.2 1023.3 0.2
02/07:00pm 4.0 -0.8 -2.2 64 2.3 SW 13 19 7 10 1021.5 1022.7 0.2
02/06:30pm 4.9 -1.2 -2.2 60 2.7 SW 20 35 11 19 1021.0 1022.1 0.2
02/06:00pm 5.5 0.0 -1.9 59 2.8 SW 17 26 9 14 1020.2 1021.4 0.2
02/05:30pm 5.3 -0.1 -1.4 62 2.6 SW 17 30 9 16 1019.4 1020.5 0.2
02/05:00pm 5.7 -1.2 0.3 68 2.2 SW 26 41 14 22 1018.9 1020.0 0.2
02/04:30pm 7.2 1.0 1.9 69 2.3 WNW 24 35 13 19 1017.8 1018.9 0.2
02/04:00pm 7.7 1.5 2.4 69 2.3 WNW 24 39 13 21 1017.4 1018.4 0.2
02/03:41pm 7.7 0.4 2.6 70 2.2 W 30 50 16 27 1017.3 1018.3 0.2
02/03:30pm 7.8 0.1 2.5 69 2.3 W 32 44 17 24 1017.2 1018.2 0.2
02/03:00pm 7.9 1.1 3.0 71 2.1 WNW 28 50 15 27 1016.6 1017.7 0.2
02/02:54pm 7.8 1.0 3.1 72 2.1 WNW 28 50 15 27 1016.3 1017.4 0.2
02/02:30pm 7.0 0.6 3.4 78 1.6 WNW 26 43 14 23 1016.4 1017.5 0.2
02/02:12pm 6.7 -0.1 3.3 79 1.5 WNW 28 52 15 28 1016.6 1017.7 0.2
02/02:00pm 6.4 0.8 3.6 82 1.2 WNW 22 33 12 18 1016.5 1017.6 0.2
02/01:30pm 6.6 0.4 4.4 86 1.0 WNW 26 33 14 18 1017.0 1018.0 0.2
02/01:00pm 7.2 0.9 4.0 80 1.4 WNW 26 39 14 21 1017.3 1018.3 0.0
02/12:30pm 9.0 3.1 3.8 70 2.4 WNW 24 35 13 19 1017.8 1018.9 0.0
02/12:00pm 8.7 2.4 3.5 70 2.3 NW 26 41 14 22 1018.2 1019.3 0.0
02/11:30am 9.0 2.9 3.0 66 2.7 WNW 24 33 13 18 1018.8 1019.9 0.0
02/11:00am 8.7 1.6 3.3 69 2.4 WNW 30 43 16 23 1019.1 1020.2 0.0
02/10:30am 8.4 3.3 3.1 69 2.3 WNW 19 26 10 14 1019.4 1020.5 0.0
02/10:00am 7.2 3.2 2.7 73 1.9 WNW 13 20 7 11 1019.9 1021.0 0.0
02/09:30am 6.1 2.5 2.7 79 1.5 WNW 11 15 6 8 1019.8 1020.9 0.0
02/09:00am 4.4 -0.1 1.9 84 1.0 WNW 15 22 8 12 1019.6 1020.7 0.0
02/08:30am 2.4 -0.6 1.1 91 0.5 NW 6 11 3 6 1019.5 1020.6 0.0
02/08:00am 0.5 -2.3 -0.1 96 0.2 NW 4 6 2 3 1019.5 1020.6 0.0
02/07:30am -0.4 -4.3 -1.4 93 0.3 W 9 17 5 9 1019.6 1020.7 0.0
02/07:00am 0.7 -2.1 -0.3 93 0.4 W 4 7 2 4 1019.9 1021.0 0.0
02/06:30am 0.4 -1.7 -0.7 92 0.4 CALM 0 6 0 3 1019.7 1020.8 0.0
02/06:00am 0.6 -2.6 -0.3 94 0.3 W 6 11 3 6 1019.6 1020.7 0.0
02/05:30am -0.1 -2.9 -0.7 96 0.2 W 4 6 2 3 1019.5 1020.6 0.0
02/05:00am 0.3 -2.5 -0.5 94 0.3 W 4 6 2 3 1019.5 1020.6 0.0
02/04:30am 0.5 -1.5 -0.4 94 0.3 CALM 0 4 0 2 1019.9 1021.0 0.0
02/04:00am 0.3 -1.8 -1.0 91 0.5 CALM 0 2 0 1 1019.7 1020.8 0.0
02/03:30am 0.9 -1.9 -0.1 93 0.4 W 4 6 2 3 1020.0 1021.1 0.0
02/03:00am 0.8 -2.4 -0.3 92 0.4 W 6 9 3 5 1020.5 1021.6 0.0
02/02:30am 1.2 -1.9 0.0 92 0.5 W 6 7 3 4 1020.5 1021.6 0.0
02/02:00am 1.2 -2.1 0.0 92 0.5 W 7 13 4 7 1020.7 1021.8 0.0
02/01:30am 1.2 -1.1 0.3 94 0.3 NW 2 4 1 2 1020.8 1021.9 0.0
02/01:00am 1.3 -2.0 0.3 93 0.4 NW 7 9 4 5 1020.9 1022.0 0.0
02/12:30am 1.4 -2.2 0.7 95 0.3 NW 9 13 5 7 1021.4 1022.5 0.0
02/12:00am 0.8 -2.5 -0.1 94 0.3 NNW 7 9 4 5 1021.5 1022.7 0.0
 
Date/Time
EST
Temp
°C
App
Temp
°C
Dew
Point
Rel
Hum
%
Delta-T
°C
Wind Press
QNH
hPa
Press
MSL
hPa
Rain
since 9 am
mm
Dir
 
Spd
km/h
Gust
km/h
Spd
kts
Gust
kts
01/11:30pm 1.5 -1.8 0.2 91 0.5 NNW 7 9 4 5 1021.6 1022.8 0.0
01/11:00pm 1.4 -2.2 0.4 93 0.4 NNW 9 11 5 6 1021.8 1023.0 0.0
01/10:30pm 2.0 -1.2 0.5 90 0.6 NW 7 9 4 5 1022.2 1023.3 0.0
01/10:00pm 2.3 -0.9 0.8 90 0.6 NW 7 9 4 5 1022.3 1023.4 0.0
01/09:30pm 2.3 -1.3 0.8 90 0.6 NW 9 11 5 6 1022.5 1023.6 0.0
01/09:00pm 2.1 -1.5 0.5 89 0.6 NW 9 15 5 8 1022.6 1023.7 0.0
01/08:30pm 2.4 -1.7 0.1 85 0.9 NNW 11 15 6 8 1022.7 1023.8 0.0
01/08:00pm 3.3 -0.3 0.7 83 1.0 NW 9 17 5 9 1023.1 1024.3 0.0

Other Formats:

Comma delimited format used in spreadsheet applications
http://www.bom.gov.au/fwo/IDN60801/IDN60801.94943.axf

JavaScript Object Notation format (JSON) in row-major order
http://www.bom.gov.au/fwo/IDN60801/IDN60801.94943.json